aviador You're here:

ZYTX Decoded Metar

SHENYANG/TAOKIAN in CHINA
Report Time2018-02-25 14:30:00
UTC Time2018-02-25 15:09:32
Flight Rules mvfr MVFR
Wind140° at 2 kt
W.Decomp.*RWY 06: 0.1 kt HW 2.0 kt RCW
W.Rank140° ranks 13
Current wind is below 140° avg. (4.0)
Visibility6000 m
Phenomena:N/A
Clouds:N/A
Expected CloudBase > 2,800 ft AGL from Temp-Dew spread
CeilingNone
Temp-8°C (ISA -23)
Dew Point-15°C (58% RH)
AAT-12.1°C
QNH1024 hPa
Density Alt-3,068 ft
Elevation115 ft
Report Wrong Elevation
Raw Report
METAR ZYTX 251430Z 14001MPS 6000 NSC M08/M15 Q1024 NOSIG=####018000135####
SAEA20 HKNC 251430

Extra information for ZYTX:More info

Metar Taf Metar & Taf Last 4 Metars F.Rules Stats Wind Profile Meteogram Temp Stats Airport Information Weather charts Add Link Nearby VenuesMetar ALERT Operation Metar Decoded Social comments